createdAt,value
2023-02-25T00:02:02.989Z,99339.50
2023-02-25T00:04:33.820Z,99342.88
2023-02-25T00:07:06.623Z,99350.34
2023-02-25T00:09:37.644Z,99349.34
2023-02-25T00:12:08.345Z,99338.91
2023-02-25T00:14:38.355Z,99321.22
2023-02-25T00:17:08.824Z,99353.00
2023-02-25T00:19:39.705Z,99350.81
2023-02-25T00:22:12.218Z,99345.06
2023-02-25T00:24:42.267Z,99351.66
2023-02-25T00:27:12.139Z,99338.50
2023-02-25T00:29:42.172Z,99353.72
2023-02-25T00:32:12.787Z,99363.81
2023-02-25T00:34:43.033Z,99358.69
2023-02-25T00:37:16.460Z,99364.13
2023-02-25T00:39:48.417Z,99252.06
2023-02-25T00:42:20.374Z,99356.66
2023-02-25T00:44:52.077Z,99378.06
2023-02-25T00:47:23.299Z,99381.88
2023-02-25T00:49:53.531Z,99383.34
2023-02-25T00:52:26.154Z,99375.53
2023-02-25T00:54:56.090Z,99392.41
2023-02-25T00:57:26.222Z,99404.56
2023-02-25T00:59:56.222Z,99414.25
2023-02-25T01:02:26.530Z,99417.16
2023-02-25T01:04:56.459Z,99432.38
2023-02-25T01:07:29.392Z,99425.34
2023-02-25T01:09:59.879Z,99429.00
2023-02-25T01:12:29.782Z,99430.72
2023-02-25T01:15:01.658Z,99421.19
2023-02-25T01:17:31.872Z,99423.50
2023-02-25T01:20:02.471Z,99424.41
2023-02-25T01:22:35.598Z,99423.84
2023-02-25T01:25:05.897Z,99425.75
2023-02-25T01:27:36.254Z,99422.66
2023-02-25T01:30:08.367Z,99427.22
2023-02-25T01:32:38.434Z,99435.16
2023-02-25T01:35:09.092Z,99423.13
2023-02-25T01:37:43.869Z,99433.56
2023-02-25T01:40:18.561Z,99427.81
2023-02-25T01:42:48.814Z,99430.50
2023-02-25T01:45:32.030Z,99441.31
2023-02-25T01:48:14.575Z,99437.34
2023-02-25T01:50:49.880Z,99421.66
2023-02-25T01:53:26.593Z,99441.63
2023-02-25T01:55:57.786Z,99440.88
2023-02-25T01:58:32.506Z,99451.00
2023-02-25T02:01:03.211Z,99440.16
2023-02-25T02:03:37.130Z,99440.44
2023-02-25T02:06:12.521Z,99449.09
2023-02-25T02:08:47.462Z,99454.50
2023-02-25T02:11:18.952Z,99458.31
2023-02-25T02:13:52.695Z,99462.44
2023-02-25T02:16:46.264Z,99469.16
2023-02-25T02:19:27.563Z,99469.91
2023-02-25T02:22:07.977Z,99472.69
2023-02-25T02:25:22.851Z,99467.56
2023-02-25T02:28:35.284Z,99480.72
2023-02-25T02:31:27.358Z,99486.47
2023-02-25T02:34:08.725Z,99482.78
2023-02-25T02:36:47.766Z,99482.94
2023-02-25T02:39:30.471Z,99471.91
2023-02-25T02:42:13.627Z,99487.59
2023-02-25T02:44:48.411Z,99488.34
2023-02-25T02:47:27.829Z,99499.03
2023-02-25T02:50:03.880Z,99489.09
2023-02-25T02:52:38.543Z,99489.19
2023-02-25T02:55:14.046Z,99474.84
2023-02-25T02:57:45.665Z,99499.47
2023-02-25T03:00:19.230Z,99501.94
2023-02-25T03:03:00.590Z,99503.41
2023-02-25T03:05:32.851Z,99502.78
2023-02-25T03:08:09.567Z,99497.50
2023-02-25T03:10:43.104Z,99493.25
2023-02-25T03:13:13.888Z,99510.00
2023-02-25T03:15:44.605Z,99511.59
2023-02-25T03:18:24.717Z,99515.13
2023-02-25T03:21:00.652Z,99487.25
2023-02-25T03:23:34.877Z,99517.47
2023-02-25T03:26:15.009Z,99519.94
2023-02-25T03:28:48.177Z,99528.88
2023-02-25T03:31:23.101Z,99519.59
2023-02-25T03:33:59.116Z,99524.47
2023-02-25T03:36:33.284Z,99531.94
2023-02-25T03:39:09.826Z,99538.53
2023-02-25T03:41:48.391Z,99536.19
2023-02-25T03:44:22.456Z,99543.06
2023-02-25T03:46:53.792Z,99557.88
2023-02-25T03:49:31.754Z,99551.13
2023-02-25T03:52:04.809Z,99550.66
2023-02-25T03:54:35.288Z,99556.53
2023-02-25T03:57:05.210Z,99561.09
2023-02-25T03:59:35.033Z,99562.28
2023-02-25T04:02:05.749Z,99557.72
2023-02-25T04:04:38.387Z,99557.25
2023-02-25T04:07:08.950Z,99562.53
2023-02-25T04:09:39.923Z,99567.53
2023-02-25T04:12:10.415Z,99555.44
2023-02-25T04:14:40.303Z,99581.56
2023-02-25T04:17:11.759Z,99582.47
2023-02-25T04:19:44.370Z,99590.97
2023-02-25T04:22:14.368Z,99586.69
2023-02-25T04:24:44.290Z,99599.00
2023-02-25T04:27:15.822Z,99613.06
2023-02-25T04:29:45.993Z,99592.69
2023-02-25T04:32:16.079Z,99607.47
2023-02-25T04:34:48.586Z,99619.94
2023-02-25T04:37:19.014Z,99611.97
2023-02-25T04:39:48.919Z,99614.88
2023-02-25T04:42:19.382Z,99619.31
2023-02-25T04:44:49.311Z,99609.34
2023-02-25T04:47:19.546Z,99617.84
2023-02-25T04:49:52.263Z,99613.56
2023-02-25T04:52:22.712Z,99620.16
2023-02-25T04:54:53.041Z,99617.09
2023-02-25T04:57:23.338Z,99615.66
2023-02-25T04:59:53.359Z,99606.53
2023-02-25T05:02:23.678Z,99611.41
2023-02-25T05:04:56.547Z,99607.63
2023-02-25T05:07:26.782Z,99596.91
2023-02-25T05:09:59.693Z,99605.00
2023-02-25T05:12:29.997Z,99603.94
2023-02-25T05:15:00.028Z,99612.13
2023-02-25T05:17:29.985Z,99604.50
2023-02-25T05:20:05.276Z,99614.63
2023-02-25T05:22:35.196Z,99611.09
2023-02-25T05:25:05.048Z,99614.47
2023-02-25T05:27:35.333Z,99616.47
2023-02-25T05:30:05.793Z,99623.94
2023-02-25T05:32:36.002Z,99623.09
2023-02-25T05:35:10.708Z,99630.81
2023-02-25T05:37:41.450Z,99616.22
2023-02-25T05:40:14.284Z,99632.97
2023-02-25T05:42:44.310Z,99633.72
2023-02-25T05:45:14.862Z,99650.09
2023-02-25T05:47:44.997Z,99649.34
2023-02-25T05:50:18.046Z,99647.59
2023-02-25T05:52:47.931Z,99660.91
2023-02-25T05:55:18.946Z,99669.66
2023-02-25T05:57:48.924Z,99674.72
2023-02-25T06:00:21.677Z,99681.00
2023-02-25T06:02:51.564Z,99689.91
2023-02-25T06:05:24.204Z,99694.41
2023-02-25T06:07:54.193Z,99697.28
2023-02-25T06:10:25.871Z,99708.69
2023-02-25T06:12:56.449Z,99714.63
2023-02-25T06:15:26.428Z,99717.28
2023-02-25T06:17:56.294Z,99724.59
2023-02-25T06:20:28.806Z,99724.97
2023-02-25T06:23:01.320Z,99729.78
2023-02-25T06:25:31.665Z,99742.00
2023-02-25T06:28:02.993Z,99741.34
2023-02-25T06:30:33.891Z,99735.19
2023-02-25T06:33:04.014Z,99742.88
2023-02-25T06:35:37.184Z,99742.94
2023-02-25T06:38:07.086Z,99751.41
2023-02-25T06:40:37.067Z,99758.50
2023-02-25T06:43:07.237Z,99759.63
2023-02-25T06:45:37.103Z,99765.50
2023-02-25T06:48:07.627Z,99762.44
2023-02-25T06:53:44.986Z,99767.41
2023-02-25T06:56:20.403Z,99774.56
2023-02-25T06:58:52.675Z,99781.28
2023-02-25T07:01:25.250Z,99776.56
2023-02-25T07:03:56.471Z,99783.63
2023-02-25T07:06:26.537Z,99790.94
2023-02-25T07:08:59.252Z,99793.03
2023-02-25T07:11:33.793Z,99798.38
2023-02-25T07:14:04.300Z,99796.78
2023-02-25T07:16:34.915Z,99803.22
2023-02-25T07:19:05.101Z,99804.69
2023-02-25T07:21:35.089Z,99820.56
2023-02-25T07:24:08.486Z,99820.06
2023-02-25T07:26:38.850Z,99824.88
2023-02-25T07:29:09.764Z,99823.53
2023-02-25T07:31:40.010Z,99826.13
2023-02-25T07:34:11.553Z,99828.63
2023-02-25T07:36:41.894Z,99826.13
2023-02-25T07:39:15.391Z,99807.66
2023-02-25T07:41:45.541Z,99827.94
2023-02-25T07:44:15.482Z,99839.09
2023-02-25T07:46:45.458Z,99841.56
2023-02-25T07:49:15.520Z,99848.88
2023-02-25T07:51:45.784Z,99843.75
2023-02-25T07:54:21.330Z,99839.75
2023-02-25T07:56:53.472Z,99832.13
2023-02-25T07:59:23.379Z,99845.78
2023-02-25T08:01:53.320Z,99844.69
2023-02-25T08:04:24.672Z,99811.09
2023-02-25T08:06:55.486Z,99836.09
2023-02-25T08:09:28.004Z,99842.25
2023-02-25T08:11:58.179Z,99842.38
2023-02-25T08:14:28.150Z,99846.97
2023-02-25T08:17:01.916Z,99858.66
2023-02-25T08:19:32.036Z,99847.66
2023-02-25T08:22:11.990Z,99854.59
2023-02-25T08:24:44.851Z,99857.16
2023-02-25T08:27:14.781Z,99848.91
2023-02-25T08:29:44.845Z,99867.31
2023-02-25T08:32:14.980Z,99852.94
2023-02-25T08:34:47.189Z,99867.69
2023-02-25T08:37:18.393Z,99848.19
2023-02-25T08:39:50.990Z,99862.69
2023-02-25T08:42:21.067Z,99868.13
2023-02-25T08:44:51.109Z,99870.78
2023-02-25T08:47:24.061Z,99857.31
2023-02-25T08:49:54.347Z,99873.13
2023-02-25T08:52:24.254Z,99871.09
2023-02-25T08:54:56.811Z,99884.47
2023-02-25T08:57:26.864Z,99881.72
2023-02-25T08:59:57.290Z,99874.13
2023-02-25T09:02:27.203Z,99886.94
2023-02-25T09:04:57.359Z,99895.63
2023-02-25T09:07:27.340Z,99893.03
2023-02-25T09:09:59.957Z,99897.97
2023-02-25T09:12:29.964Z,99893.53
2023-02-25T09:14:59.888Z,99899.41
2023-02-25T09:17:29.945Z,99900.78
2023-02-25T09:20:01.435Z,99912.00
2023-02-25T09:22:33.206Z,99916.28
2023-02-25T09:25:06.358Z,99917.81
2023-02-25T09:27:36.765Z,99918.59
2023-02-25T09:30:07.428Z,99927.13
2023-02-25T09:32:37.493Z,99935.13
2023-02-25T09:35:09.590Z,99933.19
2023-02-25T09:37:39.550Z,99942.06
2023-02-25T09:40:21.500Z,99944.78
2023-02-25T09:43:03.294Z,99949.53
2023-02-25T09:45:36.434Z,99900.97
2023-02-25T09:48:16.172Z,99968.66
2023-02-25T09:50:52.136Z,99968.72
2023-02-25T09:53:26.098Z,99980.09
2023-02-25T09:55:59.229Z,99984.38
2023-02-25T09:58:35.918Z,99986.47
2023-02-25T10:01:09.326Z,99997.53
2023-02-25T10:03:51.110Z,99994.28
2023-02-25T10:06:27.808Z,100005.59
2023-02-25T10:09:06.542Z,100000.00
2023-02-25T10:11:49.538Z,99993.97
2023-02-25T10:14:34.617Z,100014.75
2023-02-25T10:17:11.807Z,99982.28
2023-02-25T10:19:59.879Z,100020.03
2023-02-25T10:22:42.513Z,100022.28
2023-02-25T10:25:17.536Z,100029.34
2023-02-25T10:27:56.450Z,100025.47
2023-02-25T10:30:33.233Z,100025.94
2023-02-25T10:33:06.293Z,100034.19
2023-02-25T10:35:43.006Z,100042.13
2023-02-25T10:38:14.329Z,100050.84
2023-02-25T10:40:44.840Z,100050.41
2023-02-25T10:43:23.718Z,100055.63
2023-02-25T10:46:01.279Z,100062.41
2023-02-25T10:48:32.862Z,100054.88
2023-02-25T10:51:12.320Z,100050.19
2023-02-25T10:53:43.510Z,100064.06
2023-02-25T10:56:13.566Z,100059.69
2023-02-25T10:58:48.384Z,100058.72
2023-02-25T11:01:23.124Z,100066.19
2023-02-25T11:04:00.288Z,100064.94
2023-02-25T11:06:32.560Z,100057.09
2023-02-25T11:09:05.106Z,100051.88
2023-02-25T11:11:38.904Z,100058.31
2023-02-25T11:14:20.508Z,100067.34
2023-02-25T11:16:51.201Z,100080.72
2023-02-25T11:19:28.010Z,100083.69
2023-02-25T11:22:00.744Z,100091.81
2023-02-25T11:24:36.173Z,100083.38
2023-02-25T11:27:09.152Z,100091.72
2023-02-25T11:29:46.343Z,100092.69
2023-02-25T11:32:20.108Z,100080.22
2023-02-25T11:34:54.364Z,100086.13
2023-02-25T11:37:37.367Z,100104.81
2023-02-25T11:40:25.951Z,100121.72
2023-02-25T11:43:05.294Z,100113.44
2023-02-25T11:45:43.185Z,100115.41
2023-02-25T11:48:22.167Z,100101.69
2023-02-25T11:51:00.827Z,100119.75
2023-02-25T11:53:53.642Z,100124.16
2023-02-25T11:56:28.674Z,100126.47
2023-02-25T11:59:16.393Z,100133.50
2023-02-25T12:02:21.553Z,100124.50
2023-02-25T12:05:26.610Z,100133.03
2023-02-25T12:08:17.372Z,100135.84
2023-02-25T12:11:12.871Z,100127.22
2023-02-25T12:14:08.847Z,100139.44
2023-02-25T12:17:04.949Z,100157.03
2023-02-25T12:19:59.430Z,100149.94
2023-02-25T12:23:01.337Z,100152.75
2023-02-25T12:25:45.047Z,100160.31
2023-02-25T12:28:51.112Z,100168.84
2023-02-25T12:31:56.731Z,100169.91
2023-02-25T12:34:42.294Z,100177.97
2023-02-25T12:37:39.246Z,100164.38
2023-02-25T12:40:28.421Z,100169.66
2023-02-25T12:43:09.628Z,100179.88
2023-02-25T12:46:15.275Z,100176.38
2023-02-25T12:49:16.596Z,100185.69
2023-02-25T12:52:10.317Z,100174.13
2023-02-25T12:55:16.334Z,100186.06
2023-02-25T12:57:53.086Z,100177.22
2023-02-25T13:00:58.649Z,100182.66
2023-02-25T13:03:42.604Z,100196.53
2023-02-25T13:06:31.696Z,100192.38
2023-02-25T13:09:18.814Z,100205.22
2023-02-25T13:12:15.169Z,100219.69
2023-02-25T13:14:59.669Z,100204.31
2023-02-25T13:17:52.353Z,100223.66
2023-02-25T13:20:51.429Z,100228.84
2023-02-25T13:23:40.288Z,100217.41
2023-02-25T13:26:31.412Z,100209.84
2023-02-25T13:29:22.036Z,100224.03
2023-02-25T13:32:00.702Z,100220.72
2023-02-25T13:34:42.451Z,100220.47
2023-02-25T13:37:41.200Z,100230.00
2023-02-25T13:40:28.400Z,100232.56
2023-02-25T13:43:15.299Z,100246.25
2023-02-25T13:45:59.952Z,100241.25
2023-02-25T13:48:48.789Z,100233.53
2023-02-25T13:51:34.683Z,100225.59
2023-02-25T13:54:30.788Z,100236.31
2023-02-25T13:57:13.828Z,100240.63
2023-02-25T14:00:05.729Z,100246.28
2023-02-25T14:02:59.858Z,100201.59
2023-02-25T14:06:02.326Z,100239.38
2023-02-25T14:08:51.027Z,100260.09
2023-02-25T14:11:37.760Z,100243.75
2023-02-25T14:14:30.945Z,100248.00
2023-02-25T14:17:26.688Z,100268.28
2023-02-25T14:20:14.885Z,100260.53
2023-02-25T14:22:49.053Z,100262.81
2023-02-25T14:25:31.428Z,100273.84
2023-02-25T14:28:09.558Z,100284.13
2023-02-25T14:30:52.680Z,100288.31
2023-02-25T14:33:42.503Z,100269.13
2023-02-25T14:36:31.680Z,100285.75
2023-02-25T14:39:25.031Z,100299.00
2023-02-25T14:42:07.369Z,100307.00
2023-02-25T14:44:42.441Z,100301.44
2023-02-25T14:47:16.159Z,100307.22
2023-02-25T14:49:57.977Z,100325.06
2023-02-25T14:52:54.279Z,100320.75
2023-02-25T14:55:50.120Z,100317.31
2023-02-25T14:58:49.047Z,100329.06
2023-02-25T15:01:50.238Z,100323.72
2023-02-25T15:04:46.555Z,100333.06
2023-02-25T15:07:35.291Z,100331.53
2023-02-25T15:10:36.431Z,100358.09
2023-02-25T15:13:32.521Z,100341.38
2023-02-25T15:16:32.138Z,100360.44
2023-02-25T15:19:38.134Z,100366.00
2023-02-25T15:22:24.134Z,100358.72
2023-02-25T15:24:55.573Z,100365.97
2023-02-25T15:27:50.940Z,100365.59
2023-02-25T15:30:24.773Z,100375.00
2023-02-25T15:33:07.757Z,100369.31
2023-02-25T15:36:00.163Z,100375.00
2023-02-25T15:38:51.150Z,100384.47
2023-02-25T15:41:44.859Z,100398.41
2023-02-25T15:44:37.592Z,100395.78
2023-02-25T15:47:27.704Z,100391.16
2023-02-25T15:50:00.495Z,100405.56
2023-02-25T15:52:58.818Z,100409.47
2023-02-25T15:55:40.889Z,100408.28
2023-02-25T15:58:44.841Z,100414.84
2023-02-25T16:01:43.285Z,100380.72
2023-02-25T16:04:45.651Z,100419.28
2023-02-25T16:07:18.857Z,100422.09
2023-02-25T16:09:53.541Z,100420.00
2023-02-25T16:12:27.426Z,100421.97
2023-02-25T16:15:00.673Z,100422.66
2023-02-25T16:17:34.409Z,100439.19
2023-02-25T16:20:19.743Z,100433.53
2023-02-25T16:22:51.975Z,100438.84
2023-02-25T16:25:29.745Z,100448.66
2023-02-25T16:28:09.917Z,100452.75
2023-02-25T16:30:45.057Z,100451.84
2023-02-25T16:33:23.683Z,100462.50
2023-02-25T16:36:07.427Z,100463.38
2023-02-25T16:38:47.591Z,100470.00
2023-02-25T16:41:19.176Z,100463.59
2023-02-25T16:43:52.944Z,100480.50
2023-02-25T16:46:26.246Z,100473.72
2023-02-25T16:48:59.024Z,100492.59
2023-02-25T16:51:34.576Z,100489.88
2023-02-25T16:54:09.761Z,100494.16
2023-02-25T16:56:40.180Z,100501.63
2023-02-25T16:59:21.647Z,100512.28
2023-02-25T17:02:01.185Z,100512.47
2023-02-25T17:04:33.874Z,100515.81
2023-02-25T17:07:18.301Z,100525.00
2023-02-25T17:09:50.945Z,100502.91
2023-02-25T17:12:24.712Z,100515.72
2023-02-25T17:14:58.667Z,100515.91
2023-02-25T17:17:33.236Z,100528.91
2023-02-25T17:20:06.024Z,100550.25
2023-02-25T17:22:36.963Z,100555.22
2023-02-25T17:25:08.898Z,100548.75
2023-02-25T17:27:39.005Z,100540.84
2023-02-25T17:30:36.713Z,100536.00
2023-02-25T17:33:07.682Z,100547.22
2023-02-25T17:35:39.236Z,100538.38
2023-02-25T17:38:09.937Z,100552.03
2023-02-25T17:40:40.174Z,100561.31
2023-02-25T17:43:23.570Z,100565.22
2023-02-25T17:46:01.326Z,100572.16
2023-02-25T17:48:34.492Z,100576.38
2023-02-25T17:51:10.315Z,100558.28
2023-02-25T17:53:47.019Z,100576.28
2023-02-25T17:56:25.679Z,100591.78
2023-02-25T17:59:00.832Z,100586.09
2023-02-25T18:01:47.378Z,100584.69
2023-02-25T18:04:26.801Z,100592.28
2023-02-25T18:06:58.311Z,100596.41
2023-02-25T18:09:34.188Z,100604.16
2023-02-25T18:12:06.180Z,100606.75
2023-02-25T18:14:39.813Z,100603.81
2023-02-25T18:17:25.651Z,100609.84
2023-02-25T18:19:58.171Z,100615.13
2023-02-25T18:22:37.791Z,100610.84
2023-02-25T18:25:30.439Z,100617.50
2023-02-25T18:28:00.752Z,100618.22
2023-02-25T18:30:33.239Z,100622.47
2023-02-25T18:33:05.922Z,100626.16
2023-02-25T18:35:42.911Z,100646.88
2023-02-25T18:38:16.478Z,100639.25
2023-02-25T18:40:46.655Z,100642.41
2023-02-25T18:43:19.577Z,100642.03
2023-02-25T18:45:50.190Z,100634.28
2023-02-25T18:48:22.934Z,100653.34
2023-02-25T18:50:53.130Z,100651.03
2023-02-25T18:53:25.602Z,100652.44
2023-02-25T18:55:57.382Z,100646.38
2023-02-25T18:58:27.824Z,100646.19
2023-02-25T19:01:00.494Z,100653.03
2023-02-25T19:03:36.537Z,100648.78
2023-02-25T19:06:07.053Z,100653.91
2023-02-25T19:08:37.375Z,100623.22
2023-02-25T19:11:08.131Z,100661.16
2023-02-25T19:13:41.510Z,100659.38
2023-02-25T19:16:12.126Z,100644.31
2023-02-25T19:18:44.895Z,100663.03
2023-02-25T19:21:17.976Z,100664.22
2023-02-25T19:23:51.758Z,100667.41
2023-02-25T19:26:22.972Z,100667.28
2023-02-25T19:28:53.493Z,100672.25
2023-02-25T19:31:23.667Z,100675.44
2023-02-25T19:33:56.743Z,100680.78
2023-02-25T19:36:29.914Z,100669.47
2023-02-25T19:39:05.419Z,100679.50
2023-02-25T19:41:36.113Z,100681.59
2023-02-25T19:44:06.429Z,100678.41
2023-02-25T19:46:37.038Z,100686.53
2023-02-25T19:49:13.384Z,100688.53
2023-02-25T19:51:43.896Z,100696.47
2023-02-25T19:54:14.659Z,100703.31
2023-02-25T19:56:45.068Z,100704.50
2023-02-25T19:59:15.482Z,100713.13
2023-02-25T20:01:49.675Z,100690.31
2023-02-25T20:04:22.864Z,100706.06
2023-02-25T20:06:53.446Z,100715.59
2023-02-25T20:09:23.882Z,100703.09
2023-02-25T20:11:53.911Z,100714.81
2023-02-25T20:14:24.199Z,100715.97
2023-02-25T20:16:54.674Z,100726.00
2023-02-25T20:19:30.415Z,100727.69
2023-02-25T20:22:00.652Z,100731.06
2023-02-25T20:24:31.172Z,100719.56
2023-02-25T20:27:01.478Z,100732.38
2023-02-25T20:29:32.121Z,100733.94
2023-02-25T20:32:03.189Z,100742.47
2023-02-25T20:34:36.361Z,100755.97
2023-02-25T20:37:13.439Z,100743.88
2023-02-25T20:39:52.256Z,100750.91
2023-02-25T20:42:25.366Z,100759.94
2023-02-25T20:44:56.206Z,100766.06
2023-02-25T20:47:28.751Z,100763.41
2023-02-25T20:50:01.957Z,100767.97
2023-02-25T20:52:32.381Z,100761.81
2023-02-25T20:55:02.708Z,100771.75
2023-02-25T20:57:33.034Z,100780.75
2023-02-25T21:00:04.461Z,100777.47
2023-02-25T21:02:34.608Z,100791.06
2023-02-25T21:05:08.099Z,100796.59
2023-02-25T21:07:38.312Z,100799.16
2023-02-25T21:10:10.441Z,100794.75
2023-02-25T21:12:40.726Z,100797.03
2023-02-25T21:15:12.357Z,100803.81
2023-02-25T21:17:42.489Z,100795.75
2023-02-25T21:20:15.645Z,100803.84
2023-02-25T21:22:45.710Z,100809.81
2023-02-25T21:25:16.116Z,100808.13
2023-02-25T21:27:46.090Z,100798.03
2023-02-25T21:30:16.930Z,100813.00
2023-02-25T21:32:47.094Z,100816.84
2023-02-25T21:35:21.266Z,100817.56
2023-02-25T21:37:51.198Z,100822.59
2023-02-25T21:40:21.871Z,100817.00
2023-02-25T21:42:51.944Z,100827.88
2023-02-25T21:45:21.931Z,100832.00
2023-02-25T21:47:51.832Z,100825.56
2023-02-25T21:50:24.333Z,100829.81
2023-02-25T21:52:54.403Z,100835.22
2023-02-25T21:55:24.456Z,100846.50
2023-02-25T21:57:55.116Z,100843.16
2023-02-25T22:00:25.963Z,100837.09
2023-02-25T22:02:56.221Z,100851.53
2023-02-25T22:05:29.032Z,100840.31
2023-02-25T22:07:59.149Z,100844.38
2023-02-25T22:10:29.145Z,100840.59
2023-02-25T22:12:59.398Z,100851.66
2023-02-25T22:15:29.622Z,100850.56
2023-02-25T22:17:59.549Z,100848.97
2023-02-25T22:20:32.071Z,100851.72
2023-02-25T22:23:02.070Z,100864.28
2023-02-25T22:25:32.163Z,100835.19
2023-02-25T22:28:05.203Z,100862.31
2023-02-25T22:30:35.855Z,100863.63
2023-02-25T22:33:06.222Z,100861.63
2023-02-25T22:35:39.223Z,100842.41
2023-02-25T22:38:11.368Z,100866.81
2023-02-25T22:40:42.368Z,100863.94
2023-02-25T22:43:12.418Z,100878.34
2023-02-25T22:45:42.783Z,100886.28
2023-02-25T22:48:13.151Z,100890.59
2023-02-25T22:50:49.594Z,100887.47
2023-02-25T22:53:20.346Z,100886.59
2023-02-25T22:55:50.647Z,100888.84
2023-02-25T22:58:20.729Z,100891.34
2023-02-25T23:00:50.887Z,100897.00
2023-02-25T23:03:20.932Z,100891.91
2023-02-25T23:05:55.041Z,100908.97
2023-02-25T23:08:25.495Z,100897.38
2023-02-25T23:10:56.024Z,100903.88
2023-02-25T23:13:26.154Z,100912.66
2023-02-25T23:15:56.537Z,100918.72
2023-02-25T23:18:26.485Z,100920.97
2023-02-25T23:20:59.173Z,100917.41
2023-02-25T23:23:38.370Z,100924.63
2023-02-25T23:26:10.248Z,100915.38
2023-02-25T23:28:40.551Z,100915.44
2023-02-25T23:31:11.146Z,100920.56
2023-02-25T23:33:41.749Z,100928.28
2023-02-25T23:36:15.129Z,100932.13
2023-02-25T23:38:45.105Z,100932.78
2023-02-25T23:41:15.976Z,100938.19
2023-02-25T23:43:46.329Z,100901.25
2023-02-25T23:46:16.669Z,100935.56
2023-02-25T23:48:46.727Z,100956.63
2023-02-25T23:51:19.506Z,100951.28
2023-02-25T23:53:49.702Z,100948.16
2023-02-25T23:56:19.742Z,100955.09
2023-02-25T23:58:54.544Z,100952.22
